createdAt,value
2016-11-11T00:00:27.096Z,1011.37
2016-11-11T00:01:27.723Z,1011.35
2016-11-11T00:02:28.326Z,1011.36
2016-11-11T00:03:28.964Z,1011.4
2016-11-11T00:04:29.579Z,1011.42
2016-11-11T00:05:30.222Z,1011.4
2016-11-11T00:06:30.821Z,1011.38
2016-11-11T00:07:31.452Z,1011.38
2016-11-11T00:08:32.054Z,1011.4
2016-11-11T00:09:32.699Z,1011.44
2016-11-11T00:10:33.306Z,1011.44
2016-11-11T00:11:33.929Z,1011.43
2016-11-11T00:12:34.584Z,1011.44
2016-11-11T00:13:35.195Z,1011.5
2016-11-11T00:14:35.797Z,1011.46
2016-11-11T00:15:36.426Z,1011.49
2016-11-11T00:16:37.084Z,1011.53
2016-11-11T00:17:37.687Z,1011.52
2016-11-11T00:18:38.306Z,1011.52
2016-11-11T00:19:38.912Z,1011.52
2016-11-11T00:20:39.541Z,1011.52
2016-11-11T00:21:40.167Z,1011.51
2016-11-11T00:22:40.770Z,1011.5
2016-11-11T00:23:41.375Z,1011.57
2016-11-11T00:24:41.984Z,1011.53
2016-11-11T00:25:42.592Z,1011.53
2016-11-11T00:26:43.216Z,1011.58
2016-11-11T00:27:43.829Z,1011.58
2016-11-11T00:28:44.442Z,1011.62
2016-11-11T00:29:45.068Z,1011.61
2016-11-11T00:30:45.670Z,1011.66
2016-11-11T00:31:46.279Z,1011.66
2016-11-11T00:32:46.903Z,1011.74
2016-11-11T00:33:47.519Z,1011.75
2016-11-11T00:34:48.132Z,1011.73
2016-11-11T00:35:48.736Z,1011.77
2016-11-11T00:36:49.357Z,1011.7
2016-11-11T00:37:49.968Z,1011.77
2016-11-11T00:38:50.583Z,1011.81
2016-11-11T00:39:51.185Z,1011.79
2016-11-11T00:40:51.792Z,1011.82
2016-11-11T00:41:52.396Z,1011.82
2016-11-11T00:42:53.004Z,1011.83
2016-11-11T00:43:53.608Z,1011.82
2016-11-11T00:44:54.239Z,1011.84
2016-11-11T00:45:54.868Z,1011.82
2016-11-11T00:46:55.486Z,1011.87
2016-11-11T00:47:56.093Z,1011.85
2016-11-11T00:48:56.698Z,1011.91
2016-11-11T00:49:57.313Z,1011.89
2016-11-11T00:50:57.934Z,1011.9
2016-11-11T00:51:58.547Z,1011.91
2016-11-11T00:52:59.182Z,1011.93
2016-11-11T00:53:59.819Z,1011.95
2016-11-11T00:55:00.425Z,1011.93
2016-11-11T00:56:01.046Z,1011.92
2016-11-11T00:57:01.653Z,1011.96
2016-11-11T00:58:02.260Z,1011.99
2016-11-11T00:59:02.872Z,1011.98
2016-11-11T01:00:03.481Z,1012.01
2016-11-11T01:01:04.098Z,1012.02
2016-11-11T01:02:04.699Z,1012.06
2016-11-11T01:03:05.305Z,1012.06
2016-11-11T01:04:05.930Z,1012.05
2016-11-11T01:05:06.550Z,1012.06
2016-11-11T01:06:07.153Z,1012.07
2016-11-11T01:07:07.776Z,1012.05
2016-11-11T01:08:08.415Z,1012.08
2016-11-11T01:09:09.044Z,1012.09
2016-11-11T01:10:09.667Z,1012.11
2016-11-11T01:11:10.287Z,1012.09
2016-11-11T01:12:10.909Z,1012.13
2016-11-11T01:13:11.544Z,1012.1
2016-11-11T01:14:12.148Z,1012.11
2016-11-11T01:15:12.767Z,1012.12
2016-11-11T01:16:13.375Z,1012.15
2016-11-11T01:17:13.989Z,1012.14
2016-11-11T01:18:14.631Z,1012.19
2016-11-11T01:19:15.255Z,1012.21
2016-11-11T01:20:15.896Z,1012.19
2016-11-11T01:21:16.518Z,1012.18
2016-11-11T01:22:17.108Z,1012.2
2016-11-11T01:23:17.724Z,1012.21
2016-11-11T01:24:18.336Z,1012.25
2016-11-11T01:25:18.946Z,1012.25
2016-11-11T01:26:19.565Z,1012.28
2016-11-11T01:27:20.186Z,1012.24
2016-11-11T01:28:20.821Z,1012.22
2016-11-11T01:29:21.542Z,1012.25
2016-11-11T01:30:22.146Z,1012.27
2016-11-11T01:31:22.786Z,1012.26
2016-11-11T01:32:23.408Z,1012.3
2016-11-11T01:33:24.019Z,1012.26
2016-11-11T01:34:24.629Z,1012.28
2016-11-11T01:35:25.247Z,1012.23
2016-11-11T01:36:25.865Z,1012.23
2016-11-11T01:37:26.469Z,1012.27
2016-11-11T01:38:27.089Z,1012.31
2016-11-11T01:39:27.726Z,1012.35
2016-11-11T01:40:28.359Z,1012.36
2016-11-11T01:41:29.013Z,1012.4
2016-11-11T01:42:29.611Z,1012.44
2016-11-11T01:43:30.222Z,1012.47
2016-11-11T01:44:30.840Z,1012.45
2016-11-11T01:45:31.453Z,1012.46
2016-11-11T01:46:32.063Z,1012.46
2016-11-11T01:47:32.665Z,1012.37
2016-11-11T01:48:33.299Z,1012.36
2016-11-11T01:49:33.906Z,1012.4
2016-11-11T01:50:34.508Z,1012.43
2016-11-11T01:51:35.114Z,1012.46
2016-11-11T01:52:35.727Z,1012.4
2016-11-11T01:53:36.344Z,1012.45
2016-11-11T01:54:36.957Z,1012.39
2016-11-11T01:55:37.559Z,1012.41
2016-11-11T01:56:38.179Z,1012.42
2016-11-11T01:57:38.797Z,1012.45
2016-11-11T01:58:39.399Z,1012.38
2016-11-11T01:59:40.008Z,1012.45
2016-11-11T02:00:40.628Z,1012.47
2016-11-11T02:01:41.250Z,1012.49
2016-11-11T02:02:41.849Z,1012.5
2016-11-11T02:03:42.482Z,1012.52
2016-11-11T02:04:43.113Z,1012.51
2016-11-11T02:05:43.726Z,1012.54
2016-11-11T02:06:44.334Z,1012.56
2016-11-11T02:07:44.969Z,1012.53
2016-11-11T02:08:45.596Z,1012.56
2016-11-11T02:09:46.220Z,1012.59
2016-11-11T02:10:46.838Z,1012.64
2016-11-11T02:11:47.458Z,1012.64
2016-11-11T02:12:48.071Z,1012.6
2016-11-11T02:13:48.679Z,1012.66
2016-11-11T02:14:49.293Z,1012.69
2016-11-11T02:15:49.920Z,1012.67
2016-11-11T02:16:50.528Z,1012.67
2016-11-11T02:17:51.142Z,1012.67
2016-11-11T02:18:51.749Z,1012.65
2016-11-11T02:19:52.383Z,1012.66
2016-11-11T02:20:53.004Z,1012.64
2016-11-11T02:21:53.608Z,1012.63
2016-11-11T02:22:54.215Z,1012.64
2016-11-11T02:23:54.848Z,1012.64
2016-11-11T02:24:55.461Z,1012.64
2016-11-11T02:25:56.080Z,1012.65
2016-11-11T02:26:56.697Z,1012.66
2016-11-11T02:27:57.319Z,1012.67
2016-11-11T02:28:57.938Z,1012.64
2016-11-11T02:29:58.563Z,1012.65
2016-11-11T02:30:59.180Z,1012.71
2016-11-11T02:31:59.788Z,1012.73
2016-11-11T02:33:00.447Z,1012.72
2016-11-11T02:34:01.049Z,1012.73
2016-11-11T02:35:01.663Z,1012.77
2016-11-11T02:36:02.262Z,1012.76
2016-11-11T02:37:02.877Z,1012.78
2016-11-11T02:38:03.487Z,1012.81
2016-11-11T02:39:04.116Z,1012.85
2016-11-11T02:40:04.728Z,1012.83
2016-11-11T02:41:05.345Z,1012.89
2016-11-11T02:42:05.976Z,1012.88
2016-11-11T02:43:06.599Z,1012.9
2016-11-11T02:44:07.253Z,1012.84
2016-11-11T02:45:07.870Z,1012.93
2016-11-11T02:46:08.493Z,1012.94
2016-11-11T02:47:09.119Z,1013
2016-11-11T02:48:09.738Z,1012.98
2016-11-11T02:49:10.356Z,1013.03
2016-11-11T02:50:10.966Z,1013.05
2016-11-11T02:51:11.584Z,1013.01
2016-11-11T02:52:12.208Z,1013.02
2016-11-11T02:53:15.403Z,1013.01
2016-11-11T02:54:16.015Z,1013.08
2016-11-11T02:55:16.652Z,1013.07
2016-11-11T02:56:17.279Z,1013.04
2016-11-11T02:57:17.890Z,1013.06
2016-11-11T02:58:18.506Z,1013.11
2016-11-11T02:59:19.128Z,1013.1
2016-11-11T03:00:19.749Z,1013.1
2016-11-11T03:01:20.369Z,1013.13
2016-11-11T03:02:20.985Z,1013.08
2016-11-11T03:03:21.593Z,1013.09
2016-11-11T03:04:22.201Z,1013.07
2016-11-11T03:05:22.824Z,1013.13
2016-11-11T03:06:23.445Z,1013.16
2016-11-11T03:07:24.091Z,1013.13
2016-11-11T03:08:24.721Z,1013.18
2016-11-11T03:09:25.354Z,1013.17
2016-11-11T03:10:26.022Z,1013.2
2016-11-11T03:11:26.627Z,1013.27
2016-11-11T03:12:27.243Z,1013.24
2016-11-11T03:13:27.861Z,1013.23
2016-11-11T03:14:28.473Z,1013.24
2016-11-11T03:15:29.106Z,1013.24
2016-11-11T03:16:29.718Z,1013.25
2016-11-11T03:17:30.325Z,1013.27
2016-11-11T03:18:30.935Z,1013.35
2016-11-11T03:19:31.550Z,1013.34
2016-11-11T03:20:32.175Z,1013.39
2016-11-11T03:21:32.801Z,1013.36
2016-11-11T03:22:33.422Z,1013.38
2016-11-11T03:23:34.028Z,1013.37
2016-11-11T03:24:34.643Z,1013.33
2016-11-11T03:25:35.250Z,1013.36
2016-11-11T03:26:35.855Z,1013.4
2016-11-11T03:27:36.466Z,1013.4
2016-11-11T03:28:37.077Z,1013.43
2016-11-11T03:29:37.697Z,1013.41
2016-11-11T03:30:38.313Z,1013.41
2016-11-11T03:31:38.953Z,1013.49
2016-11-11T03:32:39.572Z,1013.52
2016-11-11T03:33:40.185Z,1013.55
2016-11-11T03:34:40.802Z,1013.63
2016-11-11T03:35:41.426Z,1013.59
2016-11-11T03:36:42.052Z,1013.61
2016-11-11T03:37:42.659Z,1013.63
2016-11-11T03:38:43.265Z,1013.65
2016-11-11T03:39:43.870Z,1013.68
2016-11-11T03:40:44.473Z,1013.66
2016-11-11T03:41:45.087Z,1013.71
2016-11-11T03:42:45.742Z,1013.67
2016-11-11T03:43:46.394Z,1013.72
2016-11-11T03:44:47.030Z,1013.74
2016-11-11T03:45:47.674Z,1013.77
2016-11-11T03:46:48.277Z,1013.73
2016-11-11T03:47:48.889Z,1013.77
2016-11-11T03:48:49.497Z,1013.72
2016-11-11T03:49:50.119Z,1013.73
2016-11-11T03:50:50.737Z,1013.78
2016-11-11T03:51:51.406Z,1013.72
2016-11-11T03:52:52.021Z,1013.74
2016-11-11T03:53:52.640Z,1013.77
2016-11-11T03:54:53.248Z,1013.82
2016-11-11T03:55:53.840Z,1013.85
2016-11-11T03:56:54.475Z,1013.88
2016-11-11T03:57:55.081Z,1013.89
2016-11-11T03:58:55.701Z,1013.9
2016-11-11T03:59:56.471Z,1013.96
2016-11-11T04:00:57.099Z,1013.92
2016-11-11T04:01:57.711Z,1013.94
2016-11-11T04:02:58.310Z,1013.96
2016-11-11T04:03:58.920Z,1013.99
2016-11-11T04:04:59.531Z,1013.98
2016-11-11T04:06:00.159Z,1013.94
2016-11-11T04:07:00.785Z,1013.99
2016-11-11T04:08:01.394Z,1014
2016-11-11T04:09:02.014Z,1014.02
2016-11-11T04:10:02.639Z,1014.05
2016-11-11T04:11:03.245Z,1014.04
2016-11-11T04:12:03.868Z,1014.04
2016-11-11T04:13:04.485Z,1014.06
2016-11-11T04:14:05.121Z,1014.08
2016-11-11T04:15:05.723Z,1014.08
2016-11-11T04:16:06.343Z,1014.08
2016-11-11T04:17:06.969Z,1014.12
2016-11-11T04:18:07.593Z,1014.14
2016-11-11T04:19:08.208Z,1014.14
2016-11-11T04:20:08.813Z,1014.2
2016-11-11T04:21:09.418Z,1014.2
2016-11-11T04:22:10.051Z,1014.21
2016-11-11T04:23:10.637Z,1014.22
2016-11-11T04:24:11.257Z,1014.21
2016-11-11T04:25:11.878Z,1014.25
2016-11-11T04:26:12.500Z,1014.3
2016-11-11T04:27:13.123Z,1014.27
2016-11-11T04:28:13.740Z,1014.25
2016-11-11T04:29:14.363Z,1014.32
2016-11-11T04:30:14.979Z,1014.33
2016-11-11T04:31:15.599Z,1014.36
2016-11-11T04:32:16.198Z,1014.4
2016-11-11T04:33:16.806Z,1014.37
2016-11-11T04:34:17.419Z,1014.4
2016-11-11T04:35:18.147Z,1014.41
2016-11-11T04:36:18.755Z,1014.47
2016-11-11T04:37:19.376Z,1014.47
2016-11-11T04:38:19.994Z,1014.52
2016-11-11T04:39:20.614Z,1014.52
2016-11-11T04:40:21.229Z,1014.55
2016-11-11T04:41:21.838Z,1014.56
2016-11-11T04:42:22.449Z,1014.55
2016-11-11T04:43:23.060Z,1014.56
2016-11-11T04:44:23.677Z,1014.6
2016-11-11T04:45:24.281Z,1014.6
2016-11-11T04:46:24.887Z,1014.64
2016-11-11T04:47:25.498Z,1014.62
2016-11-11T04:48:26.119Z,1014.61
2016-11-11T04:49:26.737Z,1014.62
2016-11-11T04:50:27.365Z,1014.62
2016-11-11T04:51:27.983Z,1014.66
2016-11-11T04:52:28.624Z,1014.69
2016-11-11T04:53:29.246Z,1014.74
2016-11-11T04:54:29.867Z,1014.75
2016-11-11T04:55:30.488Z,1014.7
2016-11-11T04:56:31.106Z,1014.74
2016-11-11T04:57:31.711Z,1014.75
2016-11-11T04:58:32.330Z,1014.75
2016-11-11T04:59:32.953Z,1014.75
2016-11-11T05:00:33.567Z,1014.78
2016-11-11T05:01:34.191Z,1014.77
2016-11-11T05:02:34.800Z,1014.77
2016-11-11T05:03:35.435Z,1014.81
2016-11-11T05:04:36.066Z,1014.8
2016-11-11T05:05:36.676Z,1014.76
2016-11-11T05:06:37.307Z,1014.78
2016-11-11T05:07:37.924Z,1014.82
2016-11-11T05:08:38.560Z,1014.8
2016-11-11T05:09:39.163Z,1014.82
2016-11-11T05:10:39.783Z,1014.82
2016-11-11T05:11:40.403Z,1014.83
2016-11-11T05:12:41.047Z,1014.89
2016-11-11T05:13:41.669Z,1014.89
2016-11-11T05:14:42.304Z,1014.92
2016-11-11T05:15:42.908Z,1014.97
2016-11-11T05:16:43.539Z,1015.01
2016-11-11T05:17:44.159Z,1015.03
2016-11-11T05:18:44.775Z,1015.05
2016-11-11T05:19:45.400Z,1015.07
2016-11-11T05:20:46.015Z,1015.1
2016-11-11T05:21:46.638Z,1015.07
2016-11-11T05:22:47.258Z,1015.08
2016-11-11T05:23:47.896Z,1015.11
2016-11-11T05:24:48.505Z,1015.18
2016-11-11T05:25:49.119Z,1015.19
2016-11-11T05:26:49.733Z,1015.17
2016-11-11T05:27:50.342Z,1015.23
2016-11-11T05:28:50.948Z,1015.26
2016-11-11T05:29:51.567Z,1015.32
2016-11-11T05:30:52.170Z,1015.36
2016-11-11T05:31:52.785Z,1015.4
2016-11-11T05:32:53.410Z,1015.38
2016-11-11T05:33:54.018Z,1015.41
2016-11-11T05:34:54.633Z,1015.39
2016-11-11T05:35:55.253Z,1015.39
2016-11-11T05:36:55.861Z,1015.4
2016-11-11T05:37:56.472Z,1015.43
2016-11-11T05:38:57.093Z,1015.4
2016-11-11T05:39:57.718Z,1015.45
2016-11-11T05:40:58.335Z,1015.49
2016-11-11T05:41:58.937Z,1015.46
2016-11-11T05:42:59.557Z,1015.5
2016-11-11T05:44:00.186Z,1015.52
2016-11-11T05:45:00.815Z,1015.54
2016-11-11T05:46:01.446Z,1015.56
2016-11-11T05:47:02.057Z,1015.58
2016-11-11T05:48:02.659Z,1015.62
2016-11-11T05:49:03.263Z,1015.63
2016-11-11T05:50:03.905Z,1015.7
2016-11-11T05:51:04.540Z,1015.68
2016-11-11T05:52:05.233Z,1015.71
2016-11-11T05:53:05.848Z,1015.72
2016-11-11T05:54:06.462Z,1015.76
2016-11-11T05:55:07.099Z,1015.77
2016-11-11T05:56:07.711Z,1015.81
2016-11-11T05:57:08.315Z,1015.81
2016-11-11T05:58:08.922Z,1015.86
2016-11-11T05:59:09.551Z,1015.85
2016-11-11T06:00:10.186Z,1015.89
2016-11-11T06:01:10.800Z,1015.93
2016-11-11T06:02:11.412Z,1015.92
2016-11-11T06:03:12.061Z,1015.97
2016-11-11T06:04:12.665Z,1016.01
2016-11-11T06:05:13.280Z,1016.05
2016-11-11T06:06:13.898Z,1016.08
2016-11-11T06:07:14.508Z,1016.08
2016-11-11T06:08:15.131Z,1016.06
2016-11-11T06:09:15.753Z,1016.13
2016-11-11T06:10:16.387Z,1016.16
2016-11-11T06:11:17.008Z,1016.19
2016-11-11T06:12:17.602Z,1016.21
2016-11-11T06:13:18.274Z,1016.28
2016-11-11T06:14:18.890Z,1016.31
2016-11-11T06:15:19.512Z,1016.33
2016-11-11T06:16:20.116Z,1016.29
2016-11-11T06:17:20.741Z,1016.32
2016-11-11T06:18:21.355Z,1016.35
2016-11-11T06:19:21.957Z,1016.35
2016-11-11T06:20:22.568Z,1016.35
2016-11-11T06:21:23.182Z,1016.4
2016-11-11T06:22:23.791Z,1016.37
2016-11-11T06:23:24.401Z,1016.44
2016-11-11T06:24:25.012Z,1016.43
2016-11-11T06:25:25.637Z,1016.45
2016-11-11T06:26:26.237Z,1016.46
2016-11-11T06:27:26.856Z,1016.48
2016-11-11T06:28:27.473Z,1016.54
2016-11-11T06:29:28.094Z,1016.49
2016-11-11T06:30:28.702Z,1016.53
2016-11-11T06:31:29.315Z,1016.5
2016-11-11T06:32:29.944Z,1016.55
2016-11-11T06:33:30.542Z,1016.54
2016-11-11T06:34:31.155Z,1016.54
2016-11-11T06:35:31.767Z,1016.58
2016-11-11T06:36:32.372Z,1016.58
2016-11-11T06:37:32.970Z,1016.66
2016-11-11T06:38:33.593Z,1016.67
2016-11-11T06:39:34.276Z,1016.71
2016-11-11T06:40:34.896Z,1016.67
2016-11-11T06:41:35.512Z,1016.69
2016-11-11T06:42:36.131Z,1016.69
2016-11-11T06:43:36.738Z,1016.7
2016-11-11T06:44:37.364Z,1016.7
2016-11-11T06:45:38.024Z,1016.74
2016-11-11T06:46:38.684Z,1016.75
2016-11-11T06:47:39.369Z,1016.78
2016-11-11T06:48:39.990Z,1016.79
2016-11-11T06:49:40.609Z,1016.79
2016-11-11T06:50:41.252Z,1016.83
2016-11-11T06:51:41.884Z,1016.86
2016-11-11T06:52:42.496Z,1016.89
2016-11-11T06:53:43.112Z,1016.89
2016-11-11T06:54:43.733Z,1016.91
2016-11-11T06:55:44.362Z,1016.9
2016-11-11T06:56:45.013Z,1016.92
2016-11-11T06:57:45.622Z,1016.92
2016-11-11T06:58:46.227Z,1016.92
2016-11-11T06:59:46.850Z,1016.91
2016-11-11T07:00:47.495Z,1016.92
2016-11-11T07:01:48.127Z,1016.9
2016-11-11T07:02:48.794Z,1016.94
2016-11-11T07:03:49.411Z,1016.91
2016-11-11T07:04:50.055Z,1016.95
2016-11-11T07:05:50.689Z,1016.97
2016-11-11T07:06:51.323Z,1016.95
2016-11-11T07:07:51.951Z,1017.01
2016-11-11T07:08:52.608Z,1017.02
2016-11-11T07:09:53.232Z,1017.05
2016-11-11T07:10:53.841Z,1017.11
2016-11-11T07:11:54.485Z,1017.12
2016-11-11T07:12:55.138Z,1017.13
2016-11-11T07:13:55.756Z,1017.16
2016-11-11T07:14:56.376Z,1017.17
2016-11-11T07:15:56.992Z,1017.23
2016-11-11T07:16:57.621Z,1017.23
2016-11-11T07:17:58.232Z,1017.25
2016-11-11T07:18:58.874Z,1017.32
2016-11-11T07:19:59.478Z,1017.32
2016-11-11T07:21:00.086Z,1017.35
2016-11-11T07:22:00.705Z,1017.34
2016-11-11T07:23:01.314Z,1017.35
2016-11-11T07:24:01.940Z,1017.4
2016-11-11T07:25:02.588Z,1017.4
2016-11-11T07:26:03.205Z,1017.47
2016-11-11T07:27:03.822Z,1017.47
2016-11-11T07:28:04.457Z,1017.49
2016-11-11T07:29:05.057Z,1017.49
2016-11-11T07:30:05.680Z,1017.53
2016-11-11T07:31:06.305Z,1017.53
2016-11-11T07:32:06.916Z,1017.56
2016-11-11T07:33:07.541Z,1017.6
2016-11-11T07:34:08.160Z,1017.64
2016-11-11T07:35:08.777Z,1017.65
2016-11-11T07:36:09.388Z,1017.72
2016-11-11T07:37:10.133Z,1017.73
2016-11-11T07:38:10.772Z,1017.72
2016-11-11T07:39:11.395Z,1017.74
2016-11-11T07:40:12.017Z,1017.74
2016-11-11T07:41:12.636Z,1017.78
2016-11-11T07:42:13.302Z,1017.78
2016-11-11T07:43:13.975Z,1017.8
2016-11-11T07:44:14.615Z,1017.81
2016-11-11T07:45:15.243Z,1017.78
2016-11-11T07:46:15.858Z,1017.84
2016-11-11T07:47:16.491Z,1017.82
2016-11-11T07:48:17.125Z,1017.88
2016-11-11T07:49:18.202Z,1017.88
2016-11-11T07:50:18.885Z,1017.9
2016-11-11T07:51:19.495Z,1017.93
2016-11-11T07:52:20.217Z,1017.97
2016-11-11T07:53:20.903Z,1017.94
2016-11-11T07:54:21.543Z,1017.94
2016-11-11T07:55:22.183Z,1017.97
2016-11-11T07:56:22.809Z,1017.98
2016-11-11T07:57:23.625Z,1018
2016-11-11T07:58:24.257Z,1017.98
2016-11-11T07:59:24.869Z,1018
2016-11-11T08:00:25.482Z,1018.03
2016-11-11T08:01:26.098Z,1018.04
2016-11-11T08:02:26.723Z,1018.05
2016-11-11T08:03:27.393Z,1018.07
2016-11-11T08:04:28.020Z,1018.07
2016-11-11T08:05:28.644Z,1018.12
2016-11-11T08:06:29.259Z,1018.09
2016-11-11T08:07:29.876Z,1018.09
2016-11-11T08:08:30.488Z,1018.08
2016-11-11T08:09:31.156Z,1018.11
2016-11-11T08:10:31.804Z,1018.15
2016-11-11T08:11:32.464Z,1018.15
2016-11-11T08:12:33.068Z,1018.16
2016-11-11T08:13:33.681Z,1018.21
2016-11-11T08:14:34.306Z,1018.19
2016-11-11T08:15:34.908Z,1018.26
2016-11-11T08:16:35.522Z,1018.29
2016-11-11T08:17:36.179Z,1018.34
2016-11-11T08:18:36.826Z,1018.35
2016-11-11T08:19:37.439Z,1018.35
2016-11-11T08:20:38.052Z,1018.38
2016-11-11T08:21:38.662Z,1018.41
2016-11-11T08:22:39.268Z,1018.4
2016-11-11T08:23:39.883Z,1018.46
2016-11-11T08:24:40.510Z,1018.49
2016-11-11T08:25:41.119Z,1018.5
2016-11-11T08:26:41.804Z,1018.49
2016-11-11T08:27:42.392Z,1018.54
2016-11-11T08:28:43.047Z,1018.59
2016-11-11T08:29:43.738Z,1018.58
2016-11-11T08:30:44.356Z,1018.6
2016-11-11T08:31:44.984Z,1018.57
2016-11-11T08:32:45.594Z,1018.58
2016-11-11T08:33:46.207Z,1018.58
2016-11-11T08:34:46.823Z,1018.57
2016-11-11T08:35:47.451Z,1018.53
2016-11-11T08:36:48.068Z,1018.54
2016-11-11T08:37:48.694Z,1018.6
2016-11-11T08:38:49.316Z,1018.59
2016-11-11T08:39:49.935Z,1018.61
2016-11-11T08:40:50.591Z,1018.59
2016-11-11T08:41:51.250Z,1018.62
2016-11-11T08:42:51.900Z,1018.57
2016-11-11T08:43:52.528Z,1018.59
2016-11-11T08:44:53.147Z,1018.61
2016-11-11T08:45:53.793Z,1018.64
2016-11-11T08:46:54.424Z,1018.65
2016-11-11T08:47:55.047Z,1018.69
2016-11-11T08:48:55.716Z,1018.67
2016-11-11T08:49:56.367Z,1018.63
2016-11-11T08:50:57.002Z,1018.59
2016-11-11T08:51:57.626Z,1018.62
2016-11-11T08:52:58.249Z,1018.66
2016-11-11T08:53:58.863Z,1018.72
2016-11-11T08:54:59.504Z,1018.72
2016-11-11T08:56:00.133Z,1018.7
2016-11-11T08:57:00.746Z,1018.72
2016-11-11T08:58:01.362Z,1018.73
2016-11-11T08:59:01.991Z,1018.74
2016-11-11T09:00:02.615Z,1018.75
2016-11-11T09:01:03.248Z,1018.8
2016-11-11T09:02:03.900Z,1018.78
2016-11-11T09:03:04.535Z,1018.74
2016-11-11T09:04:05.176Z,1018.78
2016-11-11T09:05:05.807Z,1018.81
2016-11-11T09:06:06.424Z,1018.83
2016-11-11T09:07:07.149Z,1018.88
2016-11-11T09:08:07.776Z,1018.86
2016-11-11T09:09:08.403Z,1018.86
2016-11-11T09:10:09.017Z,1018.91
2016-11-11T09:11:09.629Z,1018.94
2016-11-11T09:12:10.257Z,1018.94
2016-11-11T09:13:10.868Z,1018.94
2016-11-11T09:14:11.513Z,1018.99
2016-11-11T09:15:12.162Z,1019
2016-11-11T09:16:12.780Z,1018.96
2016-11-11T09:17:13.442Z,1018.98
2016-11-11T09:18:14.086Z,1019.02
2016-11-11T09:19:14.695Z,1019.04
2016-11-11T09:20:15.312Z,1019.04
2016-11-11T09:21:15.930Z,1019.03
2016-11-11T09:22:16.552Z,1019.02
2016-11-11T09:23:17.172Z,1019.07
2016-11-11T09:24:17.797Z,1019.08
2016-11-11T09:25:18.438Z,1019.1
2016-11-11T09:26:19.155Z,1019.11
2016-11-11T09:27:19.770Z,1019.14
2016-11-11T09:28:20.417Z,1019.15
2016-11-11T09:29:21.040Z,1019.17
2016-11-11T09:30:21.691Z,1019.19
2016-11-11T09:31:22.402Z,1019.18
2016-11-11T09:32:23.063Z,1019.21
2016-11-11T09:33:23.690Z,1019.24
2016-11-11T09:34:24.339Z,1019.31
2016-11-11T09:35:24.969Z,1019.29
2016-11-11T09:36:25.668Z,1019.33
2016-11-11T09:37:26.349Z,1019.38
2016-11-11T09:38:26.967Z,1019.39
2016-11-11T09:39:27.598Z,1019.42
2016-11-11T09:40:28.236Z,1019.44
2016-11-11T09:41:28.886Z,1019.46
2016-11-11T09:42:29.501Z,1019.5
2016-11-11T09:43:30.167Z,1019.52
2016-11-11T09:44:30.830Z,1019.51
2016-11-11T09:45:31.493Z,1019.54
2016-11-11T09:46:32.174Z,1019.52
2016-11-11T09:47:32.786Z,1019.56
2016-11-11T09:48:33.397Z,1019.57
2016-11-11T09:49:34.030Z,1019.61
2016-11-11T09:50:34.641Z,1019.64
2016-11-11T09:51:35.280Z,1019.64
2016-11-11T09:52:35.902Z,1019.66
2016-11-11T09:53:36.517Z,1019.68
2016-11-11T09:54:37.132Z,1019.67
2016-11-11T09:55:37.754Z,1019.66
2016-11-11T09:56:38.378Z,1019.67
2016-11-11T09:57:39.009Z,1019.65
2016-11-11T09:58:39.624Z,1019.69
2016-11-11T09:59:40.239Z,1019.7
2016-11-11T10:00:40.854Z,1019.75
2016-11-11T10:01:41.487Z,1019.78
2016-11-11T10:02:42.110Z,1019.77
2016-11-11T10:03:42.732Z,1019.8
2016-11-11T10:04:43.351Z,1019.86
2016-11-11T10:05:43.971Z,1019.89
2016-11-11T10:06:44.588Z,1019.84
2016-11-11T10:07:45.199Z,1019.9
2016-11-11T10:08:45.846Z,1019.91
2016-11-11T10:09:46.447Z,1019.91
2016-11-11T10:10:47.062Z,1019.92
2016-11-11T10:11:47.690Z,1019.87
2016-11-11T10:12:48.322Z,1019.93
2016-11-11T10:13:48.947Z,1019.93
2016-11-11T10:14:49.636Z,1019.89
2016-11-11T10:15:50.446Z,1019.98
2016-11-11T10:16:51.797Z,1019.96
2016-11-11T10:17:54.465Z,1019.95
2016-11-11T10:18:56.643Z,1020
2016-11-11T10:19:57.606Z,1019.96
2016-11-11T10:20:58.228Z,1019.94
2016-11-11T10:21:58.878Z,1020.01
2016-11-11T10:22:59.493Z,1020.02
2016-11-11T10:24:00.121Z,1019.99
2016-11-11T10:25:00.764Z,1020.06
2016-11-11T10:26:01.433Z,1020.05
2016-11-11T10:27:02.069Z,1020.07
2016-11-11T10:28:02.674Z,1020.08
2016-11-11T10:29:03.292Z,1020.05
2016-11-11T10:30:03.912Z,1020.09
2016-11-11T10:31:04.529Z,1020.04
2016-11-11T10:32:05.168Z,1020.03
2016-11-11T10:33:05.820Z,1020.05
2016-11-11T10:34:06.436Z,1020.05
2016-11-11T10:35:07.051Z,1020.05
2016-11-11T10:36:07.688Z,1020.11
2016-11-11T10:37:08.311Z,1020.11
2016-11-11T10:38:08.970Z,1020.09
2016-11-11T10:39:09.595Z,1020.14
2016-11-11T10:40:10.240Z,1020.1
2016-11-11T10:41:10.939Z,1020.09
2016-11-11T10:42:11.577Z,1020.11
2016-11-11T10:43:12.185Z,1020.14
2016-11-11T10:44:12.796Z,1020.17
2016-11-11T10:45:13.421Z,1020.13
2016-11-11T10:46:14.037Z,1020.18
2016-11-11T10:47:14.658Z,1020.19
2016-11-11T10:48:15.277Z,1020.2
2016-11-11T10:49:15.891Z,1020.24
2016-11-11T10:50:16.531Z,1020.23
2016-11-11T10:51:17.169Z,1020.27
2016-11-11T10:52:18.474Z,1020.3
2016-11-11T10:53:19.107Z,1020.31
2016-11-11T10:54:19.732Z,1020.35
2016-11-11T10:55:20.357Z,1020.33
2016-11-11T10:56:21.028Z,1020.33
2016-11-11T10:57:21.641Z,1020.36
2016-11-11T10:58:22.268Z,1020.37
2016-11-11T10:59:22.932Z,1020.37
2016-11-11T11:00:23.608Z,1020.39
2016-11-11T11:01:24.270Z,1020.35
2016-11-11T11:02:24.956Z,1020.39
2016-11-11T11:03:25.583Z,1020.35
2016-11-11T11:04:26.196Z,1020.41
2016-11-11T11:05:26.879Z,1020.35
2016-11-11T11:06:27.604Z,1020.34
2016-11-11T11:07:28.224Z,1020.35
2016-11-11T11:08:28.909Z,1020.32
2016-11-11T11:09:29.661Z,1020.35
2016-11-11T11:10:30.338Z,1020.35
2016-11-11T11:11:31.060Z,1020.33
2016-11-11T11:12:31.787Z,1020.32
2016-11-11T11:13:32.665Z,1020.33
2016-11-11T11:14:33.327Z,1020.31
2016-11-11T11:15:34.018Z,1020.31
2016-11-11T11:16:34.793Z,1020.27
2016-11-11T11:17:35.396Z,1020.32
2016-11-11T11:18:36.014Z,1020.35
2016-11-11T11:19:36.619Z,1020.34
2016-11-11T11:20:37.235Z,1020.4
2016-11-11T11:21:37.859Z,1020.35
2016-11-11T11:22:38.493Z,1020.36
2016-11-11T11:23:39.123Z,1020.35
2016-11-11T11:24:39.759Z,1020.39
2016-11-11T11:25:40.419Z,1020.41
2016-11-11T11:26:41.051Z,1020.39
2016-11-11T11:27:41.695Z,1020.41
2016-11-11T11:28:42.369Z,1020.41
2016-11-11T11:29:43.039Z,1020.46
2016-11-11T11:30:43.660Z,1020.4
2016-11-11T11:31:44.336Z,1020.49
2016-11-11T11:32:44.945Z,1020.47
2016-11-11T11:33:45.557Z,1020.46
2016-11-11T11:34:46.338Z,1020.47
2016-11-11T11:35:46.946Z,1020.45
2016-11-11T11:36:47.578Z,1020.5
2016-11-11T11:37:48.233Z,1020.48
2016-11-11T11:38:48.850Z,1020.47
2016-11-11T11:39:49.506Z,1020.53
2016-11-11T11:40:50.195Z,1020.49
2016-11-11T11:41:50.821Z,1020.52
2016-11-11T11:42:51.431Z,1020.49
2016-11-11T11:43:52.037Z,1020.5
2016-11-11T11:44:52.681Z,1020.53
2016-11-11T11:45:53.310Z,1020.52
2016-11-11T11:46:53.926Z,1020.53
2016-11-11T11:47:54.600Z,1020.56
2016-11-11T11:48:55.230Z,1020.57
2016-11-11T11:49:55.958Z,1020.54
2016-11-11T11:50:56.593Z,1020.55
2016-11-11T11:51:57.262Z,1020.51
2016-11-11T11:52:57.942Z,1020.5
2016-11-11T11:53:58.560Z,1020.53
2016-11-11T11:54:59.290Z,1020.49
2016-11-11T11:55:59.925Z,1020.47
2016-11-11T11:57:00.541Z,1020.48
2016-11-11T11:58:01.165Z,1020.48
2016-11-11T11:59:01.783Z,1020.49
2016-11-11T12:00:02.406Z,1020.54
2016-11-11T12:01:03.033Z,1020.56
2016-11-11T12:02:03.660Z,1020.59
2016-11-11T12:03:04.282Z,1020.63
2016-11-11T12:04:04.889Z,1020.69
2016-11-11T12:05:05.505Z,1020.68
2016-11-11T12:06:06.133Z,1020.73
2016-11-11T12:07:06.751Z,1020.7
2016-11-11T12:08:07.419Z,1020.72
2016-11-11T12:09:08.079Z,1020.8
2016-11-11T12:10:08.701Z,1020.75
2016-11-11T12:11:09.315Z,1020.79
2016-11-11T12:12:09.941Z,1020.81
2016-11-11T12:13:10.588Z,1020.84
2016-11-11T12:14:11.208Z,1020.88
2016-11-11T12:15:11.861Z,1020.87
2016-11-11T12:16:12.556Z,1020.9